createdAt,value
2023-02-28T00:01:44.417Z,1.43
2023-02-28T00:04:12.446Z,1.67
2023-02-28T00:06:40.464Z,1.00
2023-02-28T00:09:08.461Z,1.30
2023-02-28T00:11:38.785Z,1.90
2023-02-28T00:14:08.175Z,1.20
2023-02-28T00:16:36.202Z,1.30
2023-02-28T00:19:04.256Z,1.37
2023-02-28T00:21:32.416Z,1.43
2023-02-28T00:24:00.575Z,1.60
2023-02-28T00:26:28.661Z,1.30
2023-02-28T00:28:56.682Z,1.40
2023-02-28T00:31:26.224Z,1.50
2023-02-28T00:33:54.502Z,1.43
2023-02-28T00:36:23.014Z,1.30
2023-02-28T00:38:51.074Z,1.50
2023-02-28T00:41:19.094Z,1.20
2023-02-28T00:43:47.101Z,1.43
2023-02-28T00:46:15.191Z,1.53
2023-02-28T00:48:44.542Z,1.50
2023-02-28T00:51:12.600Z,1.30
2023-02-28T00:53:40.607Z,1.60
2023-02-28T00:56:09.176Z,1.73
2023-02-28T00:58:37.175Z,1.17
2023-02-28T01:01:05.786Z,1.10
2023-02-28T01:03:33.972Z,1.83
2023-02-28T01:06:03.286Z,1.63
2023-02-28T01:08:31.333Z,1.50
2023-02-28T01:10:59.540Z,1.70
2023-02-28T01:13:27.520Z,1.40
2023-02-28T01:15:57.979Z,1.50
2023-02-28T01:18:26.493Z,1.30
2023-02-28T01:20:54.713Z,1.13
2023-02-28T01:23:25.203Z,1.77
2023-02-28T01:25:54.088Z,1.77
2023-02-28T01:28:22.488Z,1.30
2023-02-28T01:30:50.974Z,1.43
2023-02-28T01:33:19.071Z,1.40
2023-02-28T01:35:47.082Z,1.47
2023-02-28T01:38:22.195Z,1.83
2023-02-28T01:40:53.467Z,1.60
2023-02-28T01:43:27.154Z,1.23
2023-02-28T01:45:57.310Z,1.50
2023-02-28T01:48:29.606Z,1.60
2023-02-28T01:51:02.220Z,1.53
2023-02-28T01:53:37.300Z,1.70
2023-02-28T01:56:09.407Z,2.40
2023-02-28T01:58:39.178Z,2.07
2023-02-28T02:01:07.205Z,1.60
2023-02-28T02:03:37.493Z,1.80
2023-02-28T02:06:06.292Z,1.50
2023-02-28T02:08:34.356Z,1.90
2023-02-28T02:11:03.789Z,1.83
2023-02-28T02:13:48.508Z,1.40
2023-02-28T02:16:37.066Z,1.40
2023-02-28T02:19:19.540Z,2.20
2023-02-28T02:22:23.907Z,1.40
2023-02-28T02:25:21.029Z,2.30
2023-02-28T02:28:50.161Z,1.73
2023-02-28T02:31:56.557Z,1.77
2023-02-28T02:34:54.980Z,1.80
2023-02-28T02:37:32.223Z,1.57
2023-02-28T02:40:09.911Z,2.13
2023-02-28T02:42:46.428Z,1.57
2023-02-28T02:45:19.730Z,1.33
2023-02-28T02:47:48.001Z,1.77
2023-02-28T02:50:23.030Z,1.90
2023-02-28T02:52:55.994Z,1.70
2023-02-28T02:55:25.713Z,1.60
2023-02-28T02:57:57.041Z,1.50
2023-02-28T03:00:32.709Z,2.47
2023-02-28T03:03:03.189Z,1.70
2023-02-28T03:05:38.028Z,1.70
2023-02-28T03:08:07.239Z,1.63
2023-02-28T03:10:40.200Z,1.37
2023-02-28T03:13:37.177Z,1.80
2023-02-28T03:16:39.617Z,1.80
2023-02-28T03:19:49.595Z,2.03
2023-02-28T03:22:43.750Z,1.70
2023-02-28T03:25:21.566Z,1.47
2023-02-28T03:28:02.912Z,1.60
2023-02-28T03:30:40.406Z,1.70
2023-02-28T03:33:14.633Z,1.70
2023-02-28T03:35:48.103Z,1.40
2023-02-28T03:38:24.626Z,1.90
2023-02-28T03:40:58.535Z,1.97
2023-02-28T03:43:32.164Z,1.90
2023-02-28T03:46:06.957Z,1.70
2023-02-28T03:48:40.861Z,1.33
2023-02-28T03:51:12.651Z,1.73
2023-02-28T03:53:47.481Z,1.87
2023-02-28T03:56:19.951Z,2.10
2023-02-28T03:58:56.190Z,1.37
2023-02-28T04:01:29.324Z,2.40
2023-02-28T04:03:57.578Z,1.30
2023-02-28T04:06:26.636Z,1.77
2023-02-28T04:08:56.656Z,1.60
2023-02-28T04:11:35.714Z,1.70
2023-02-28T04:14:04.180Z,1.50
2023-02-28T04:16:35.688Z,1.47
2023-02-28T04:19:05.998Z,1.60
2023-02-28T04:21:36.780Z,1.67
2023-02-28T04:24:07.261Z,1.20
2023-02-28T04:26:38.159Z,1.80
2023-02-28T04:29:08.115Z,1.17
2023-02-28T04:31:36.318Z,1.70
2023-02-28T04:34:04.962Z,1.67
2023-02-28T04:36:33.016Z,1.77
2023-02-28T04:39:01.065Z,1.40
2023-02-28T04:41:32.608Z,1.23
2023-02-28T04:44:01.112Z,1.90
2023-02-28T04:46:29.225Z,1.40
2023-02-28T04:48:57.181Z,1.90
2023-02-28T04:51:25.299Z,1.87
2023-02-28T04:53:53.972Z,1.87
2023-02-28T04:56:22.456Z,2.23
2023-02-28T04:58:54.107Z,2.17
2023-02-28T05:01:26.519Z,1.67
2023-02-28T05:03:56.706Z,1.77
2023-02-28T05:06:27.719Z,1.80
2023-02-28T05:08:56.025Z,1.57
2023-02-28T05:11:30.350Z,1.10
2023-02-28T05:14:00.008Z,1.23
2023-02-28T05:16:28.118Z,2.07
2023-02-28T05:18:56.707Z,1.97
2023-02-28T05:21:32.375Z,2.17
2023-02-28T05:24:03.025Z,1.53
2023-02-28T05:26:32.591Z,1.30
2023-02-28T05:29:01.931Z,1.43
2023-02-28T05:31:30.418Z,1.60
2023-02-28T05:33:58.742Z,1.50
2023-02-28T05:36:27.125Z,1.47
2023-02-28T05:38:55.157Z,1.23
2023-02-28T05:41:23.583Z,1.63
2023-02-28T05:43:51.845Z,1.57
2023-02-28T05:46:21.354Z,2.53
2023-02-28T05:48:50.854Z,1.50
2023-02-28T05:51:19.356Z,1.27
2023-02-28T05:53:49.157Z,1.53
2023-02-28T05:56:17.495Z,1.90
2023-02-28T05:58:45.472Z,1.70
2023-02-28T06:01:35.896Z,1.87
2023-02-28T06:04:05.799Z,1.77
2023-02-28T06:06:36.835Z,2.17
2023-02-28T06:09:06.235Z,1.67
2023-02-28T06:11:52.065Z,1.43
2023-02-28T06:14:22.264Z,1.57
2023-02-28T06:16:51.686Z,2.17
2023-02-28T06:19:19.844Z,1.40
2023-02-28T06:21:51.768Z,1.67
2023-02-28T06:24:19.763Z,1.47
2023-02-28T06:26:47.803Z,1.60
2023-02-28T06:29:17.993Z,1.53
2023-02-28T06:31:46.287Z,1.77
2023-02-28T06:34:21.526Z,1.90
2023-02-28T06:36:53.519Z,2.00
2023-02-28T06:39:21.750Z,2.27
2023-02-28T06:41:55.306Z,1.47
2023-02-28T06:44:25.698Z,1.27
2023-02-28T06:46:53.756Z,1.57
2023-02-28T06:49:23.366Z,1.47
2023-02-28T06:51:51.422Z,1.00
2023-02-28T06:54:19.406Z,1.63
2023-02-28T06:56:48.134Z,1.40
2023-02-28T06:59:16.161Z,1.90
2023-02-28T07:01:44.174Z,1.30
2023-02-28T07:04:12.211Z,1.50
2023-02-28T07:06:41.573Z,1.70
2023-02-28T07:09:10.299Z,1.60
2023-02-28T07:11:38.293Z,1.70
2023-02-28T07:14:06.338Z,1.50
2023-02-28T07:16:34.610Z,1.80
2023-02-28T07:19:02.602Z,1.43
2023-02-28T07:21:30.833Z,1.10
2023-02-28T07:24:00.438Z,1.20
2023-02-28T07:26:28.426Z,1.20
2023-02-28T07:28:56.557Z,1.37
2023-02-28T07:31:24.633Z,1.00
2023-02-28T07:33:52.742Z,1.00
2023-02-28T07:36:20.736Z,1.20
2023-02-28T07:38:50.858Z,1.83
2023-02-28T07:41:23.155Z,1.57
2023-02-28T07:43:51.199Z,1.80
2023-02-28T07:46:21.281Z,1.53
2023-02-28T07:48:49.381Z,1.63
2023-02-28T07:51:17.349Z,1.53
2023-02-28T07:53:45.348Z,1.50
2023-02-28T07:56:13.476Z,1.47
2023-02-28T07:58:42.849Z,1.20
2023-02-28T08:01:12.919Z,1.80
2023-02-28T08:03:41.703Z,1.60
2023-02-28T08:06:18.109Z,1.53
2023-02-28T08:08:50.318Z,1.37
2023-02-28T08:11:24.051Z,1.67
2023-02-28T08:13:53.626Z,1.30
2023-02-28T08:16:23.359Z,1.67
2023-02-28T08:18:52.615Z,1.70
2023-02-28T08:21:21.817Z,1.37
2023-02-28T08:23:50.509Z,1.77
2023-02-28T08:26:18.828Z,1.83
2023-02-28T08:28:47.294Z,2.00
2023-02-28T08:31:18.782Z,1.53
2023-02-28T08:33:49.458Z,1.90
2023-02-28T08:36:21.152Z,1.60
2023-02-28T08:38:49.176Z,1.83
2023-02-28T08:41:17.274Z,1.80
2023-02-28T08:43:45.400Z,1.90
2023-02-28T08:46:16.180Z,2.20
2023-02-28T08:48:44.738Z,1.80
2023-02-28T08:51:19.544Z,1.47
2023-02-28T08:53:50.304Z,2.10
2023-02-28T08:56:19.203Z,2.20
2023-02-28T08:58:48.274Z,1.70
2023-02-28T09:01:20.066Z,2.00
2023-02-28T09:03:50.259Z,1.73
2023-02-28T09:06:20.398Z,1.73
2023-02-28T09:08:48.671Z,2.13
2023-02-28T09:11:16.713Z,2.40
2023-02-28T09:13:45.009Z,1.83
2023-02-28T09:16:16.986Z,2.50
2023-02-28T09:18:47.158Z,2.00
2023-02-28T09:21:17.710Z,2.20
2023-02-28T09:23:47.251Z,2.20
2023-02-28T09:26:16.849Z,2.37
2023-02-28T09:28:45.690Z,2.10
2023-02-28T09:31:16.592Z,2.60
2023-02-28T09:33:46.444Z,2.33
2023-02-28T09:36:14.519Z,2.17
2023-02-28T09:38:42.781Z,2.40
2023-02-28T09:41:16.931Z,3.03
2023-02-28T09:43:49.253Z,2.90
2023-02-28T09:46:36.250Z,2.30
2023-02-28T09:49:14.611Z,3.13
2023-02-28T09:51:52.839Z,1.83
2023-02-28T09:54:23.865Z,2.60
2023-02-28T09:56:55.231Z,2.30
2023-02-28T09:59:41.957Z,2.30
2023-02-28T10:02:40.374Z,2.80
2023-02-28T10:05:15.570Z,2.70
2023-02-28T10:08:00.021Z,2.30
2023-02-28T10:10:35.671Z,3.20
2023-02-28T10:13:07.783Z,2.43
2023-02-28T10:15:37.779Z,2.57
2023-02-28T10:18:12.808Z,2.60
2023-02-28T10:20:44.974Z,2.10
2023-02-28T10:23:21.371Z,2.10
2023-02-28T10:25:57.286Z,2.17
2023-02-28T10:28:34.580Z,2.40
2023-02-28T10:31:03.127Z,2.37
2023-02-28T10:33:33.484Z,2.80
2023-02-28T10:36:04.793Z,2.20
2023-02-28T10:38:37.617Z,2.27
2023-02-28T10:41:08.614Z,2.87
2023-02-28T10:43:37.615Z,3.30
2023-02-28T10:46:16.162Z,2.73
2023-02-28T10:48:49.325Z,3.60
2023-02-28T10:51:21.647Z,2.73
2023-02-28T10:54:01.412Z,2.40
2023-02-28T10:56:31.542Z,3.30
2023-02-28T10:59:02.174Z,2.27
2023-02-28T11:01:42.741Z,2.80
2023-02-28T11:04:33.695Z,2.70
2023-02-28T11:07:06.283Z,2.77
2023-02-28T11:09:37.683Z,3.57
2023-02-28T11:12:09.819Z,2.73
2023-02-28T11:14:51.231Z,2.70
2023-02-28T11:17:24.307Z,2.40
2023-02-28T11:19:55.953Z,2.93
2023-02-28T11:22:30.045Z,2.90
2023-02-28T11:25:01.917Z,2.73
2023-02-28T11:27:52.103Z,2.63
2023-02-28T11:30:33.372Z,3.37
2023-02-28T11:33:01.755Z,3.37
2023-02-28T11:35:36.896Z,2.80
2023-02-28T11:38:10.407Z,2.57
2023-02-28T11:40:45.994Z,2.87
2023-02-28T11:43:32.903Z,2.83
2023-02-28T11:46:20.656Z,3.23
2023-02-28T11:49:00.560Z,3.60
2023-02-28T11:51:34.766Z,2.93
2023-02-28T11:54:31.967Z,3.83
2023-02-28T11:57:06.217Z,3.80
2023-02-28T11:59:58.460Z,3.77
2023-02-28T12:02:30.995Z,2.73
2023-02-28T12:05:19.979Z,3.20
2023-02-28T12:08:01.678Z,3.57
2023-02-28T12:10:34.652Z,3.33
2023-02-28T12:13:20.076Z,2.97
2023-02-28T12:16:29.754Z,3.40
2023-02-28T12:19:19.813Z,3.70
2023-02-28T12:22:08.895Z,2.77
2023-02-28T12:25:24.045Z,3.27
2023-02-28T12:27:55.059Z,2.70
2023-02-28T12:30:27.117Z,4.20
2023-02-28T12:33:00.160Z,3.70
2023-02-28T12:35:36.627Z,3.70
2023-02-28T12:38:11.160Z,3.30
2023-02-28T12:40:48.249Z,4.33
2023-02-28T12:43:21.014Z,3.20
2023-02-28T12:45:53.482Z,3.37
2023-02-28T12:48:29.875Z,3.93
2023-02-28T12:50:58.869Z,3.27
2023-02-28T12:53:33.334Z,2.80
2023-02-28T12:56:18.393Z,3.10
2023-02-28T12:58:52.750Z,3.67
2023-02-28T13:01:44.586Z,3.80
2023-02-28T13:04:48.159Z,3.60
2023-02-28T13:08:09.335Z,3.77
2023-02-28T13:10:44.637Z,3.80
2023-02-28T13:13:19.580Z,4.50
2023-02-28T13:16:06.688Z,3.40
2023-02-28T13:18:38.461Z,4.23
2023-02-28T13:21:09.243Z,3.80
2023-02-28T13:24:00.034Z,3.37
2023-02-28T13:27:25.769Z,2.97
2023-02-28T13:29:54.956Z,3.43
2023-02-28T13:32:40.452Z,4.00
2023-02-28T13:35:46.236Z,3.70
2023-02-28T13:38:41.638Z,4.23
2023-02-28T13:41:47.684Z,4.20
2023-02-28T13:44:21.962Z,3.30
2023-02-28T13:47:26.826Z,3.50
2023-02-28T13:49:56.362Z,3.90
2023-02-28T13:52:26.325Z,3.57
2023-02-28T13:55:26.321Z,3.63
2023-02-28T13:58:10.166Z,3.87
2023-02-28T14:00:55.145Z,5.17
2023-02-28T14:03:54.112Z,4.07
2023-02-28T14:06:29.450Z,3.20
2023-02-28T14:09:05.433Z,3.53
2023-02-28T14:11:37.312Z,3.80
2023-02-28T14:14:09.024Z,3.83
2023-02-28T14:16:45.804Z,4.03
2023-02-28T14:19:17.611Z,3.73
2023-02-28T14:22:20.906Z,3.60
2023-02-28T14:25:12.171Z,3.23
2023-02-28T14:27:52.001Z,3.00
2023-02-28T14:31:02.331Z,3.67
2023-02-28T14:33:48.586Z,3.80
2023-02-28T14:36:23.982Z,4.07
2023-02-28T14:38:57.169Z,3.67
2023-02-28T14:41:33.239Z,3.30
2023-02-28T14:44:04.449Z,4.40
2023-02-28T14:46:39.878Z,3.73
2023-02-28T14:49:18.374Z,2.70
2023-02-28T14:51:48.241Z,3.70
2023-02-28T14:54:27.391Z,3.80
2023-02-28T14:56:55.720Z,3.40
2023-02-28T14:59:30.254Z,3.20
2023-02-28T15:02:22.486Z,3.80
2023-02-28T15:04:59.094Z,4.00
2023-02-28T15:07:31.549Z,3.93
2023-02-28T15:10:15.604Z,3.33
2023-02-28T15:12:47.655Z,3.90
2023-02-28T15:15:19.780Z,3.57
2023-02-28T15:17:52.592Z,3.50
2023-02-28T15:20:21.044Z,3.90
2023-02-28T15:22:51.824Z,3.93
2023-02-28T15:25:24.278Z,3.40
2023-02-28T15:27:55.522Z,3.97
2023-02-28T15:30:28.370Z,3.20
2023-02-28T15:33:21.295Z,3.70
2023-02-28T15:35:49.602Z,3.07
2023-02-28T15:38:24.007Z,3.37
2023-02-28T15:40:55.699Z,3.70
2023-02-28T15:43:29.542Z,3.67
2023-02-28T15:46:04.124Z,3.60
2023-02-28T15:48:35.740Z,3.90
2023-02-28T15:51:09.509Z,4.00
2023-02-28T15:53:43.323Z,5.70
2023-02-28T15:56:25.577Z,3.43
2023-02-28T15:58:56.299Z,5.20
2023-02-28T16:01:29.425Z,3.97
2023-02-28T16:04:02.660Z,5.17
2023-02-28T16:06:43.159Z,4.70
2023-02-28T16:09:14.779Z,5.10
2023-02-28T16:11:50.318Z,4.50
2023-02-28T16:14:23.980Z,3.80
2023-02-28T16:16:54.978Z,4.17
2023-02-28T16:19:24.158Z,4.20
2023-02-28T16:21:52.336Z,3.67
2023-02-28T16:24:20.363Z,3.43
2023-02-28T16:26:53.472Z,3.87
2023-02-28T16:29:27.579Z,4.30
2023-02-28T16:31:56.081Z,3.20
2023-02-28T16:34:24.581Z,3.67
2023-02-28T16:36:52.727Z,3.80
2023-02-28T16:39:21.604Z,4.47
2023-02-28T16:41:52.589Z,3.30
2023-02-28T16:44:30.799Z,3.80
2023-02-28T16:46:59.082Z,3.50
2023-02-28T16:49:27.832Z,7.57
2023-02-28T16:51:55.963Z,5.47
2023-02-28T16:54:24.563Z,5.53
2023-02-28T16:56:54.231Z,4.50
2023-02-28T16:59:26.569Z,4.30
2023-02-28T17:01:54.996Z,4.40
2023-02-28T17:04:23.168Z,3.53
2023-02-28T17:06:51.682Z,3.43
2023-02-28T17:09:26.246Z,4.17
2023-02-28T17:12:00.209Z,3.10
2023-02-28T17:14:28.247Z,3.40
2023-02-28T17:16:56.276Z,3.80
2023-02-28T17:19:24.327Z,3.17
2023-02-28T17:21:52.332Z,3.37
2023-02-28T17:24:30.203Z,3.10
2023-02-28T17:27:00.900Z,3.30
2023-02-28T17:29:29.179Z,4.10
2023-02-28T17:31:58.915Z,3.70
2023-02-28T17:34:28.732Z,3.40
2023-02-28T17:36:56.895Z,2.77
2023-02-28T17:39:25.779Z,3.87
2023-02-28T17:41:54.252Z,2.73
2023-02-28T17:44:25.928Z,3.30
2023-02-28T17:46:55.839Z,2.47
2023-02-28T17:49:24.562Z,2.70
2023-02-28T17:51:52.565Z,3.20
2023-02-28T17:54:20.926Z,3.00
2023-02-28T17:56:49.230Z,2.90
2023-02-28T17:59:17.345Z,3.03
2023-02-28T18:01:46.954Z,3.57
2023-02-28T18:04:15.063Z,2.47
2023-02-28T18:06:48.635Z,2.70
2023-02-28T18:09:18.347Z,2.90
2023-02-28T18:11:48.924Z,3.60
2023-02-28T18:14:18.023Z,4.03
2023-02-28T18:16:47.872Z,3.63
2023-02-28T18:19:17.283Z,2.53
2023-02-28T18:21:46.884Z,2.50
2023-02-28T18:24:16.305Z,2.60
2023-02-28T18:26:46.725Z,2.63
2023-02-28T18:29:23.287Z,2.60
2023-02-28T18:31:55.494Z,2.37
2023-02-28T18:34:25.772Z,2.73
2023-02-28T18:36:54.084Z,2.63
2023-02-28T18:39:22.172Z,3.40
2023-02-28T18:41:50.201Z,3.37
2023-02-28T18:44:21.009Z,2.30
2023-02-28T18:46:49.981Z,2.27
2023-02-28T18:49:19.858Z,3.37
2023-02-28T18:51:48.464Z,3.33
2023-02-28T18:54:17.846Z,2.80
2023-02-28T18:56:46.509Z,2.20
2023-02-28T18:59:14.572Z,2.50
2023-02-28T19:01:42.663Z,2.47
2023-02-28T19:04:14.719Z,2.90
2023-02-28T19:06:44.183Z,3.00
2023-02-28T19:09:12.481Z,3.17
2023-02-28T19:11:40.569Z,3.60
2023-02-28T19:14:09.450Z,3.00
2023-02-28T19:16:37.660Z,2.53
2023-02-28T19:19:05.763Z,2.60
2023-02-28T19:21:36.464Z,2.63
2023-02-28T19:24:06.670Z,2.77
2023-02-28T19:26:35.033Z,2.57
2023-02-28T19:29:04.761Z,3.10
2023-02-28T19:31:33.639Z,2.30
2023-02-28T19:34:02.235Z,3.10
2023-02-28T19:36:30.311Z,3.03
2023-02-28T19:38:58.293Z,2.70
2023-02-28T19:41:28.280Z,2.90
2023-02-28T19:43:56.426Z,3.20
2023-02-28T19:46:24.448Z,4.67
2023-02-28T19:48:55.275Z,3.43
2023-02-28T19:51:23.941Z,2.67
2023-02-28T19:53:52.152Z,3.20
2023-02-28T19:56:20.169Z,3.37
2023-02-28T19:58:49.564Z,3.20
2023-02-28T20:01:20.440Z,2.90
2023-02-28T20:03:50.235Z,3.37
2023-02-28T20:06:18.982Z,2.53
2023-02-28T20:08:47.090Z,3.57
2023-02-28T20:11:18.110Z,2.70
2023-02-28T20:13:46.880Z,3.67
2023-02-28T20:16:16.850Z,2.43
2023-02-28T20:18:46.091Z,3.73
2023-02-28T20:21:16.746Z,3.47
2023-02-28T20:23:47.415Z,3.80
2023-02-28T20:26:20.025Z,3.87
2023-02-28T20:28:48.256Z,2.90
2023-02-28T20:31:22.121Z,3.40
2023-02-28T20:33:51.612Z,3.53
2023-02-28T20:36:23.532Z,4.50
2023-02-28T20:38:52.934Z,3.00
2023-02-28T20:41:21.686Z,3.73
2023-02-28T20:43:55.198Z,3.60
2023-02-28T20:46:24.984Z,3.30
2023-02-28T20:48:53.084Z,3.33
2023-02-28T20:51:21.825Z,3.13
2023-02-28T20:53:50.241Z,3.23
2023-02-28T20:56:21.076Z,3.80
2023-02-28T20:58:52.776Z,3.27
2023-02-28T21:01:26.147Z,4.13
2023-02-28T21:03:56.865Z,2.80
2023-02-28T21:06:28.491Z,4.07
2023-02-28T21:08:57.959Z,3.30
2023-02-28T21:11:29.062Z,3.40
2023-02-28T21:14:00.219Z,3.73
2023-02-28T21:16:30.936Z,3.57
2023-02-28T21:19:03.847Z,3.90
2023-02-28T21:21:33.876Z,3.20
2023-02-28T21:24:04.713Z,4.17
2023-02-28T21:26:33.256Z,3.80
2023-02-28T21:29:03.635Z,4.27
2023-02-28T21:31:35.679Z,3.97
2023-02-28T21:34:07.756Z,3.57
2023-02-28T21:36:40.196Z,3.43
2023-02-28T21:39:15.965Z,3.10
2023-02-28T21:41:44.255Z,3.57
2023-02-28T21:44:18.675Z,3.80
2023-02-28T21:46:50.143Z,3.63
2023-02-28T21:49:21.509Z,3.50
2023-02-28T21:51:49.542Z,3.60
2023-02-28T21:54:17.635Z,4.50
2023-02-28T21:56:45.640Z,3.93
2023-02-28T21:59:13.969Z,3.27
2023-02-28T22:01:45.283Z,3.47
2023-02-28T22:04:21.045Z,4.10
2023-02-28T22:06:52.323Z,4.13
2023-02-28T22:09:21.301Z,3.00
2023-02-28T22:11:49.620Z,3.27
2023-02-28T22:14:17.866Z,3.10
2023-02-28T22:16:55.064Z,3.67
2023-02-28T22:19:27.114Z,2.93
2023-02-28T22:21:56.325Z,4.27
2023-02-28T22:24:25.014Z,4.10
2023-02-28T22:26:53.795Z,3.67
2023-02-28T22:29:21.892Z,4.00
2023-02-28T22:31:49.992Z,3.77
2023-02-28T22:34:18.143Z,4.13
2023-02-28T22:36:47.431Z,3.17
2023-02-28T22:39:15.398Z,3.63
2023-02-28T22:41:43.473Z,4.57
2023-02-28T22:44:12.702Z,4.13
2023-02-28T22:46:40.773Z,3.63
2023-02-28T22:49:08.944Z,4.20
2023-02-28T22:51:36.983Z,3.17
2023-02-28T22:54:06.715Z,3.73
2023-02-28T22:56:34.836Z,3.77
2023-02-28T22:59:04.288Z,3.80
2023-02-28T23:01:35.184Z,3.90
2023-02-28T23:04:03.886Z,3.83
2023-02-28T23:06:34.733Z,4.10
2023-02-28T23:09:07.686Z,3.23
2023-02-28T23:11:38.934Z,3.87
2023-02-28T23:14:07.238Z,2.90
2023-02-28T23:16:40.835Z,3.30
2023-02-28T23:19:12.334Z,4.20
2023-02-28T23:21:40.831Z,3.87
2023-02-28T23:24:11.875Z,3.97
2023-02-28T23:26:41.856Z,4.50
2023-02-28T23:29:09.963Z,4.20
2023-02-28T23:31:38.546Z,5.90
2023-02-28T23:34:06.565Z,4.20
2023-02-28T23:36:34.917Z,4.93
2023-02-28T23:39:02.919Z,3.90
2023-02-28T23:41:32.611Z,4.97
2023-02-28T23:44:00.701Z,3.70
2023-02-28T23:46:29.287Z,4.67
2023-02-28T23:48:57.520Z,4.73
2023-02-28T23:51:25.507Z,3.50
2023-02-28T23:53:54.047Z,3.80
2023-02-28T23:56:24.773Z,4.30
2023-02-28T23:58:56.261Z,3.97
